Time;durP1;ratioP1;P1;durP2;ratioP2;P2;SDS_P1;SDS_P2;PMS_P1;PMS_P2;Temp;Humidity;BMP_temperature;BMP_pressure;BME280_temperature;BME280_humidity;BME280_pressure;Samples;Min_cycle;Max_cycle;Signal;HPM_P1;HPM_P2
2024/02/16 00:01:58;;;;;;;11.23;8.05;;;;;;;-143.29;100.00;62188.47;4928892;29;20035;-96
2024/02/16 00:04:24;;;;;;;12.05;8.88;;;;;;;-143.29;100.00;62188.47;4927945;29;20029;-96
2024/02/16 00:06:50;;;;;;;12.20;8.27;;;;;;;-143.29;100.00;62188.47;4928939;29;20039;-96
2024/02/16 00:09:17;;;;;;;14.00;8.52;;;;;;;-143.29;100.00;62188.47;4929089;29;20019;-96
2024/02/16 00:11:43;;;;;;;10.40;7.72;;;;;;;-143.29;100.00;62188.47;4928664;29;20035;-96
2024/02/16 00:14:09;;;;;;;16.00;7.47;;;;;;;-143.29;100.00;62188.47;4929091;29;20048;-96
2024/02/16 00:16:35;;;;;;;12.93;8.18;;;;;;;-143.29;100.00;62188.47;4929697;29;20060;-96
2024/02/16 00:19:01;;;;;;;10.77;7.53;;;;;;;-143.29;100.00;62188.47;4929235;29;20020;-96
2024/02/16 00:21:27;;;;;;;11.00;8.00;;;;;;;-143.29;100.00;62188.47;4913883;29;20092;-96
2024/02/16 00:23:53;;;;;;;10.70;7.50;;;;;;;-143.29;100.00;62188.47;4928651;29;20024;-96
2024/02/16 00:26:19;;;;;;;11.40;8.30;;;;;;;-143.29;100.00;62188.47;4930609;29;20061;-96
2024/02/16 00:28:46;;;;;;;9.95;6.57;;;;;;;-143.29;100.00;62188.47;4929620;29;20039;-96
2024/02/16 00:31:12;;;;;;;10.52;7.63;;;;;;;-143.29;100.00;62188.47;4931468;29;20032;-96
2024/02/16 00:33:37;;;;;;;13.00;8.32;;;;;;;-143.29;100.00;62188.47;4916496;29;20058;-96
2024/02/16 00:36:03;;;;;;;10.95;7.43;;;;;;;-143.29;100.00;62188.47;4931244;29;20083;-96
2024/02/16 00:38:29;;;;;;;9.55;7.10;;;;;;;-143.29;100.00;62188.47;4932079;29;20063;-96
2024/02/16 00:40:55;;;;;;;10.25;7.25;;;;;;;-143.29;100.00;62188.47;4933123;29;20074;-96
2024/02/16 00:43:21;;;;;;;13.25;8.82;;;;;;;-143.29;100.00;62188.47;4938382;29;20052;-96
2024/02/16 00:45:48;;;;;;;13.20;8.27;;;;;;;-143.29;100.00;62188.47;4937657;29;20040;-96
2024/02/16 00:48:14;;;;;;;13.02;8.52;;;;;;;-143.29;100.00;62188.47;4938873;29;20382;-96
2024/02/16 00:50:42;;;;;;;17.35;10.40;;;;;;;-143.29;100.00;62188.47;4938465;29;20052;-96
2024/02/16 00:53:10;;;;;;;19.98;11.10;;;;;;;-143.29;100.00;62188.47;4939407;29;20036;-96
2024/02/16 00:55:37;;;;;;;23.27;11.13;;;;;;;-143.29;100.00;62188.47;4939399;29;20483;-96
2024/02/16 00:58:02;;;;;;;19.15;10.63;;;;;;;-143.29;100.00;62188.47;4937973;29;20119;-96
2024/02/16 01:00:31;;;;;;;19.70;11.23;;;;;;;-143.29;100.00;62188.47;4940267;29;20032;-96
2024/02/16 01:02:59;;;;;;;22.80;11.75;;;;;;;-143.29;100.00;62188.47;4939053;29;20103;-95
2024/02/16 01:05:25;;;;;;;19.20;12.30;;;;;;;-143.29;100.00;62188.47;4909156;29;20047;-96
2024/02/16 01:07:53;;;;;;;17.98;10.68;;;;;;;-143.29;100.00;62188.47;4923077;29;20036;-96
2024/02/16 01:10:20;;;;;;;20.83;12.10;;;;;;;-143.29;100.00;62188.47;4939405;29;20023;-96
2024/02/16 01:12:47;;;;;;;24.13;10.70;;;;;;;-143.29;100.00;62188.47;4939467;29;20024;-96
2024/02/16 01:15:19;;;;;;;18.83;9.05;;;;;;;-143.29;100.00;62188.47;4938885;29;20028;-96
2024/02/16 01:17:52;;;;;;;19.33;9.80;;;;;;;-143.29;100.00;62188.47;4938668;29;20024;-96
2024/02/16 01:20:20;;;;;;;18.45;9.60;;;;;;;-143.29;100.00;62188.47;4938598;29;20037;-96
2024/02/16 01:22:53;;;;;;;13.43;8.93;;;;;;;-143.29;100.00;62188.47;4940480;29;20088;-96
2024/02/16 01:25:18;;;;;;;13.70;8.15;;;;;;;-143.29;100.00;62188.47;4940457;29;20043;-96
2024/02/16 01:27:46;;;;;;;14.23;7.95;;;;;;;-143.29;100.00;62188.47;4941441;29;20036;-96
2024/02/16 01:50:59;;;;;;;13.43;7.03;;;;;;;-143.29;100.00;62188.47;5756988;23;20084;-96
2024/02/16 01:53:24;;;;;;;12.00;6.45;;;;;;;-143.29;100.00;62188.47;4933552;29;20108;-96
2024/02/16 01:55:50;;;;;;;12.88;7.68;;;;;;;-143.29;100.00;62188.47;4933869;29;20106;-95
2024/02/16 01:58:16;;;;;;;11.60;6.32;;;;;;;-143.29;100.00;62188.47;4933828;29;20024;-96
2024/02/16 02:00:42;;;;;;;15.93;7.03;;;;;;;-143.29;100.00;62188.47;4934799;29;20032;-96
2024/02/16 02:03:08;;;;;;;17.85;7.90;;;;;;;-143.29;100.00;62188.47;4935432;29;20061;-95
2024/02/16 02:05:33;;;;;;;11.50;6.28;;;;;;;-143.29;100.00;62188.47;4932957;29;20032;-96
2024/02/16 02:08:08;;;;;;;13.93;7.18;;;;;;;-143.29;100.00;62188.47;4933571;29;20064;-96
2024/02/16 02:10:34;;;;;;;17.77;7.95;;;;;;;-143.29;100.00;62188.47;4933649;29;20031;-96
2024/02/16 02:12:59;;;;;;;21.92;8.27;;;;;;;-143.29;100.00;62188.47;4935294;29;20028;-96
2024/02/16 02:15:25;;;;;;;17.88;8.25;;;;;;;-143.29;100.00;62188.47;4932415;29;20035;-95
2024/02/16 02:17:51;;;;;;;14.57;7.88;;;;;;;-143.29;100.00;62188.47;4933803;29;20549;-96
2024/02/16 02:20:17;;;;;;;15.45;8.45;;;;;;;-143.29;100.00;62188.47;4935371;29;20055;-95
2024/02/16 02:22:43;;;;;;;20.58;9.23;;;;;;;-143.29;100.00;62188.47;4934649;29;20036;-95
2024/02/16 02:25:13;;;;;;;12.23;7.70;;;;;;;-143.29;100.00;62188.47;4934209;29;20064;-95
2024/02/16 02:27:38;;;;;;;12.05;7.85;;;;;;;-143.29;100.00;62188.47;4935009;29;20080;-96
2024/02/16 02:30:06;;;;;;;13.60;7.10;;;;;;;-143.29;100.00;62188.47;4935780;29;20020;-96
2024/02/16 02:32:32;;;;;;;27.15;7.80;;;;;;;-143.29;100.00;62188.47;4920031;29;20039;-95
2024/02/16 02:34:59;;;;;;;17.77;6.55;;;;;;;-143.29;100.00;62188.47;4921428;29;20036;-96
2024/02/16 02:37:25;;;;;;;12.27;6.95;;;;;;;-143.29;100.00;62188.47;4935884;29;20033;-95
2024/02/16 02:39:52;;;;;;;13.75;6.95;;;;;;;-143.29;100.00;62188.47;4935168;29;20028;-96
2024/02/16 02:42:20;;;;;;;14.30;7.53;;;;;;;-143.29;100.00;62188.47;4935646;29;20486;-96
2024/02/16 02:44:50;;;;;;;16.77;7.28;;;;;;;-143.29;100.00;62188.47;4936020;29;20039;-96
2024/02/16 02:47:22;;;;;;;16.25;6.68;;;;;;;-143.29;100.00;62188.47;4934768;29;20120;-96
2024/02/16 02:49:48;;;;;;;13.27;6.78;;;;;;;-143.29;100.00;62188.47;4936065;29;20056;-96
2024/02/16 02:52:13;;;;;;;18.23;8.77;;;;;;;-143.29;100.00;62188.47;4934614;29;20043;-95
2024/02/16 02:54:41;;;;;;;20.85;8.40;;;;;;;-143.29;100.00;62188.47;4936090;29;20106;-96
2024/02/16 02:57:08;;;;;;;15.70;7.47;;;;;;;-143.29;100.00;62188.47;4920321;29;20067;-96
2024/02/16 02:59:34;;;;;;;21.10;7.35;;;;;;;-143.29;100.00;62188.47;4938417;29;20028;-95
2024/02/16 03:02:01;;;;;;;19.75;8.50;;;;;;;-143.29;100.00;62188.47;4934315;29;20125;-96
2024/02/16 03:04:27;;;;;;;16.27;8.50;;;;;;;-143.29;100.00;62188.47;4934602;29;20028;-96
2024/02/16 03:06:54;;;;;;;24.23;8.82;;;;;;;-143.29;100.00;62188.47;4936498;29;20043;-96
2024/02/16 03:09:25;;;;;;;19.67;7.45;;;;;;;-143.29;100.00;62188.47;4936456;29;20059;-96
2024/02/16 03:11:54;;;;;;;19.40;8.07;;;;;;;-143.29;100.00;62188.47;4936883;29;20024;-96
2024/02/16 03:14:20;;;;;;;27.00;10.15;;;;;;;-143.29;100.00;62188.47;4936688;29;20027;-96
2024/02/16 03:16:45;;;;;;;21.92;9.05;;;;;;;-143.29;100.00;62188.47;4936237;29;20028;-96
2024/02/16 03:19:12;;;;;;;21.90;8.55;;;;;;;-143.29;100.00;62188.47;4936955;29;20043;-96
2024/02/16 03:21:56;;;;;;;17.45;7.47;;;;;;;-143.29;100.00;62188.47;4937407;29;20028;-96
2024/02/16 03:24:23;;;;;;;27.85;8.05;;;;;;;-143.29;100.00;62188.47;4937902;29;20273;-96
2024/02/16 04:08:13;;;;;;;26.65;8.95;;;;;;;-143.29;100.00;62188.47;5107756;23;20060;-96
2024/02/16 06:46:43;;;;;;;29.00;5.90;;;;;;;-143.29;100.00;62188.47;5482752;23;20052;-95
2024/02/16 07:12:25;;;;;;;20.98;3.95;;;;;;;-143.29;100.00;62188.47;4992644;23;20031;-93
2024/02/16 07:14:51;;;;;;;20.08;3.58;;;;;;;-143.29;100.00;62188.47;4939231;29;20036;-96
2024/02/16 07:17:17;;;;;;;20.83;3.72;;;;;;;-143.29;100.00;62188.47;4940490;29;20038;-96
2024/02/16 07:19:42;;;;;;;15.20;3.38;;;;;;;-143.29;100.00;62188.47;4941449;29;20075;-96
2024/02/16 07:22:08;;;;;;;19.00;5.15;;;;;;;-143.29;100.00;62188.47;4940673;29;20035;-96
2024/02/16 07:24:39;;;;;;;15.95;3.00;;;;;;;-143.29;100.00;62188.47;4941086;29;20032;-96
2024/02/16 07:27:10;;;;;;;22.60;2.88;;;;;;;-143.29;100.00;62188.47;4941057;29;20041;-96
2024/02/16 07:29:46;;;;;;;23.33;3.38;;;;;;;-143.29;100.00;62188.47;4939992;29;20012;-96
2024/02/16 07:32:20;;;;;;;22.63;2.95;;;;;;;-143.29;100.00;62188.47;4938261;29;20542;-96
2024/02/16 07:34:47;;;;;;;26.88;3.55;;;;;;;-143.29;100.00;62188.47;4937744;29;20024;-96
2024/02/16 07:37:13;;;;;;;20.23;2.95;;;;;;;-143.29;100.00;62188.47;4936777;29;20024;-96
2024/02/16 07:39:41;;;;;;;18.48;3.47;;;;;;;-143.29;100.00;62188.47;4937643;29;20058;-96
2024/02/16 07:42:09;;;;;;;17.63;3.03;;;;;;;-143.29;100.00;62188.47;4937585;29;20056;-96
2024/02/16 07:44:36;;;;;;;18.40;4.70;;;;;;;-143.29;100.00;62188.47;4936687;29;20036;-96
2024/02/16 07:47:03;;;;;;;18.65;3.95;;;;;;;-143.29;100.00;62188.47;4937773;29;20020;-96
2024/02/16 07:49:33;;;;;;;14.50;1.95;;;;;;;-143.29;100.00;62188.47;4936784;29;20040;-96
2024/02/16 07:51:58;;;;;;;12.45;2.08;;;;;;;-143.29;100.00;62188.47;5017596;23;20040;-95
2024/02/16 07:54:24;;;;;;;11.98;2.00;;;;;;;-143.29;100.00;62188.47;4919727;29;20077;-95
2024/02/16 07:56:49;;;;;;;14.45;1.75;;;;;;;-143.29;100.00;62188.47;4919011;29;20049;-96
2024/02/16 07:59:15;;;;;;;17.15;2.92;;;;;;;-143.29;100.00;62188.47;4920377;29;20047;-95
2024/02/16 08:01:44;;;;;;;22.08;2.85;;;;;;;-143.29;100.00;62188.47;4915063;29;20084;-96
2024/02/16 08:04:09;;;;;;;19.17;2.28;;;;;;;-143.29;100.00;62188.47;4917577;29;20029;-96
2024/02/16 08:06:35;;;;;;;21.45;2.15;;;;;;;-143.29;100.00;62188.47;4917760;29;20124;-96
2024/02/16 08:09:01;;;;;;;14.18;1.40;;;;;;;-143.29;100.00;62188.47;4919696;29;20036;-96
2024/02/16 08:11:27;;;;;;;13.13;1.58;;;;;;;-143.29;100.00;62188.47;4918553;29;20044;-96
2024/02/16 08:13:53;;;;;;;12.00;1.63;;;;;;;-143.29;100.00;62188.47;4919451;29;20021;-96
2024/02/16 08:16:18;;;;;;;11.63;1.33;;;;;;;-143.29;100.00;62188.47;4919466;29;20096;-96
2024/02/16 08:18:45;;;;;;;7.95;1.10;;;;;;;-143.29;100.00;62188.47;4914204;29;20025;-96
2024/02/16 08:21:11;;;;;;;15.27;2.00;;;;;;;-143.29;100.00;62188.47;4915309;29;20029;-95
2024/02/16 08:23:38;;;;;;;21.08;1.70;;;;;;;-143.29;100.00;62188.47;4915058;29;20043;-96
2024/02/16 08:26:03;;;;;;;11.05;1.65;;;;;;;-143.29;100.00;62188.47;4912915;29;20029;-96
2024/02/16 08:28:29;;;;;;;15.52;2.28;;;;;;;-143.29;100.00;62188.47;4914278;29;20049;-96
2024/02/16 08:30:55;;;;;;;13.70;1.88;;;;;;;-143.29;100.00;62188.47;4914116;29;20036;-96
2024/02/16 08:33:23;;;;;;;16.33;1.70;;;;;;;-143.29;100.00;62188.47;4916414;29;20029;-95
2024/02/16 08:35:50;;;;;;;19.55;2.08;;;;;;;-143.29;100.00;62188.47;4913746;29;20065;-96
2024/02/16 08:38:16;;;;;;;13.25;2.03;;;;;;;-143.29;100.00;62188.47;4909068;29;20100;-96
2024/02/16 08:40:41;;;;;;;14.23;1.55;;;;;;;-143.29;100.00;62188.47;4912816;29;20029;-96
2024/02/16 08:43:07;;;;;;;12.80;4.50;;;;;;;-143.29;100.00;62188.47;4911438;29;20028;-96
2024/02/16 08:45:33;;;;;;;12.15;1.52;;;;;;;-143.29;100.00;62188.47;4912849;29;20033;-96
2024/02/16 08:48:04;;;;;;;14.57;2.05;;;;;;;-143.29;100.00;62188.47;4910586;29;20392;-96
2024/02/16 08:50:30;;;;;;;14.90;1.90;;;;;;;-143.29;100.00;62188.47;4909507;29;20040;-96
2024/02/16 08:52:56;;;;;;;20.98;2.75;;;;;;;-143.29;100.00;62188.47;4909673;29;20024;-96
2024/02/16 08:55:22;;;;;;;10.82;1.73;;;;;;;-143.29;100.00;62188.47;4924775;29;20040;-96
2024/02/16 08:57:48;;;;;;;18.98;2.47;;;;;;;-143.29;100.00;62188.47;4909022;29;20028;-96
2024/02/16 09:00:16;;;;;;;21.83;1.60;;;;;;;-143.29;100.00;62188.47;4908590;29;20049;-96
2024/02/16 09:02:42;;;;;;;19.40;3.00;;;;;;;-143.29;100.00;62188.47;4913971;29;20017;-96
2024/02/16 09:05:09;;;;;;;25.02;2.38;;;;;;;-143.29;100.00;62188.47;4912364;29;20099;-96
2024/02/16 09:07:35;;;;;;;14.75;3.25;;;;;;;-143.29;100.00;62188.47;4929608;29;20048;-96
2024/02/16 09:10:01;;;;;;;14.60;2.15;;;;;;;-143.29;100.00;62188.47;4912222;29;20092;-96
2024/02/16 09:12:27;;;;;;;21.98;5.25;;;;;;;-143.29;100.00;62188.47;4912489;29;20029;-96
2024/02/16 09:14:53;;;;;;;23.83;2.50;;;;;;;-143.29;100.00;62188.47;4911997;29;20077;-96
2024/02/16 09:17:20;;;;;;;20.80;2.30;;;;;;;-143.29;100.00;62188.47;4914161;29;20020;-96
2024/02/16 09:19:46;;;;;;;24.30;5.10;;;;;;;-143.29;100.00;62188.47;4915209;29;20029;-96
2024/02/16 09:22:12;;;;;;;19.40;2.08;;;;;;;-143.29;100.00;62188.47;4915303;29;20029;-96
2024/02/16 09:24:37;;;;;;;21.88;4.55;;;;;;;-143.29;100.00;62188.47;4897335;29;20032;-96
2024/02/16 09:27:04;;;;;;;14.57;2.08;;;;;;;-143.29;100.00;62188.47;4911916;29;20028;-96
2024/02/16 09:29:30;;;;;;;21.77;2.65;;;;;;;-143.29;100.00;62188.47;4911884;29;20075;-96
2024/02/16 09:31:56;;;;;;;21.52;2.22;;;;;;;-143.29;100.00;62188.47;4910361;29;20031;-96
2024/02/16 09:34:21;;;;;;;13.85;1.88;;;;;;;-143.29;100.00;62188.47;4908541;29;20021;-96
2024/02/16 09:36:47;;;;;;;14.98;2.88;;;;;;;-143.29;100.00;62188.47;4909985;29;20040;-96
2024/02/16 09:39:12;;;;;;;30.40;3.45;;;;;;;-143.29;100.00;62188.47;4910652;29;20040;-96
2024/02/16 09:41:42;;;;;;;15.48;2.00;;;;;;;-143.29;100.00;62188.47;4909009;29;20048;-95
2024/02/16 09:44:09;;;;;;;13.18;1.92;;;;;;;-143.29;100.00;62188.47;4910098;29;20029;-96
2024/02/16 09:46:35;;;;;;;20.73;3.10;;;;;;;-143.29;100.00;62188.47;4913797;29;20025;-96
2024/02/16 09:49:03;;;;;;;16.25;2.03;;;;;;;-143.29;100.00;62188.47;4913792;29;20044;-96
2024/02/16 09:51:30;;;;;;;18.38;2.13;;;;;;;-143.29;100.00;62188.47;4914166;29;20033;-96
2024/02/16 09:53:56;;;;;;;13.70;2.22;;;;;;;-143.29;100.00;62188.47;4899668;29;20036;-96
2024/02/16 09:56:24;;;;;;;16.25;3.58;;;;;;;-143.29;100.00;62188.47;4915125;29;20062;-96
2024/02/16 09:58:54;;;;;;;15.02;2.53;;;;;;;-143.29;100.00;62188.47;4913586;29;20025;-96
2024/02/16 10:01:21;;;;;;;20.63;2.28;;;;;;;-143.29;100.00;62188.47;4912334;29;20115;-96
2024/02/16 10:03:49;;;;;;;11.20;1.50;;;;;;;-143.29;100.00;62188.47;4913400;29;20032;-96
2024/02/16 10:06:22;;;;;;;7.00;1.10;;;;;;;-143.29;100.00;62188.47;4912396;29;20036;-96
2024/02/16 10:08:50;;;;;;;10.52;1.40;;;;;;;-143.29;100.00;62188.47;4894574;29;20088;-96
2024/02/16 10:11:18;;;;;;;12.70;2.63;;;;;;;-143.29;100.00;62188.47;4914551;29;20025;-96
2024/02/16 10:14:01;;;;;;;14.98;2.55;;;;;;;-143.29;100.00;62188.47;4916536;29;20391;-96
2024/02/16 10:16:28;;;;;;;11.80;2.50;;;;;;;-143.29;100.00;62188.47;4918638;29;20021;-96
2024/02/16 10:19:05;;;;;;;15.82;2.33;;;;;;;-143.29;100.00;62188.47;4917369;29;20056;-96
2024/02/16 10:21:30;;;;;;;13.48;1.85;;;;;;;-143.29;100.00;62188.47;4919655;29;20020;-96
2024/02/16 10:24:07;;;;;;;17.30;2.35;;;;;;;-143.29;100.00;62188.47;4922332;29;20033;-96
2024/02/16 10:26:38;;;;;;;10.57;1.63;;;;;;;-143.29;100.00;62188.47;4914704;29;20024;-96
2024/02/16 10:29:11;;;;;;;9.27;1.35;;;;;;;-143.29;100.00;62188.47;4915795;29;20044;-96
2024/02/16 10:31:46;;;;;;;14.38;1.95;;;;;;;-143.29;100.00;62188.47;4919680;29;20029;-96
2024/02/16 10:34:13;;;;;;;9.10;1.67;;;;;;;-143.29;100.00;62188.47;4919662;29;20104;-96
2024/02/16 10:36:41;;;;;;;11.35;1.45;;;;;;;-143.29;100.00;62188.47;4932747;29;20025;-96
2024/02/16 10:39:11;;;;;;;8.80;1.13;;;;;;;-143.29;100.00;62188.47;4914101;29;20744;-96
2024/02/16 10:42:03;;;;;;;14.15;1.33;;;;;;;-143.29;100.00;62188.47;4919239;29;20028;-96
2024/02/16 10:44:30;;;;;;;12.00;1.30;;;;;;;-143.29;100.00;62188.47;4919948;29;20028;-96
2024/02/16 10:47:22;;;;;;;8.63;1.48;;;;;;;-143.29;100.00;62188.47;4921132;29;20027;-96
2024/02/16 10:50:29;;;;;;;10.57;1.10;;;;;;;-143.29;100.00;62188.47;4922048;29;20049;-96
2024/02/16 10:56:33;;;;;;;9.57;2.10;;;;;;;-143.29;100.00;62188.47;5154422;23;20318;-96
2024/02/16 17:14:01;;;;;;;24.33;3.78;;;;;;;-143.29;100.00;62188.47;4918838;29;20052;-96
2024/02/16 17:16:32;;;;;;;27.33;2.88;;;;;;;-143.29;100.00;62188.47;4936655;29;20032;-96
2024/02/16 17:19:03;;;;;;;;;;;;;;;-143.29;100.00;62188.47;4920112;29;20072;-96
2024/02/16 17:21:30;;;;;;;20.77;2.63;;;;;;;-143.29;100.00;62188.47;5055430;23;19935;-96
2024/02/16 17:24:05;;;;;;;24.55;3.40;;;;;;;-143.29;100.00;62188.47;4938411;29;20104;-96
2024/02/16 17:26:34;;;;;;;26.92;4.75;;;;;;;-143.29;100.00;62188.47;4942262;29;20016;-96
2024/02/16 17:29:02;;;;;;;21.77;3.00;;;;;;;-143.29;100.00;62188.47;4941228;29;20040;-96
2024/02/16 17:31:29;;;;;;;19.30;2.60;;;;;;;-143.29;100.00;62188.47;4955286;29;20056;-95
2024/02/16 17:33:59;;;;;;;18.17;2.47;;;;;;;-143.29;100.00;62188.47;4941751;29;20103;-96
2024/02/16 17:36:25;;;;;;;21.50;2.47;;;;;;;-143.29;100.00;62188.47;4942127;29;20031;-96
2024/02/16 17:38:55;;;;;;;16.25;1.88;;;;;;;-143.29;100.00;62188.47;4940522;29;20036;-96
2024/02/16 17:41:23;;;;;;;16.63;2.53;;;;;;;-143.29;100.00;62188.47;4941849;29;20056;-96
2024/02/16 17:46:30;;;;;;;14.43;2.75;;;;;;;-143.29;100.00;62188.47;5182357;23;20044;-96
2024/02/16 17:48:59;;;;;;;11.73;2.28;;;;;;;-143.29;100.00;62188.47;4941518;29;20028;-96
2024/02/16 17:51:25;;;;;;;14.55;2.58;;;;;;;-143.29;100.00;62188.47;4941543;29;20039;-96
2024/02/16 17:53:52;;;;;;;10.57;3.10;;;;;;;-143.29;100.00;62188.47;4941355;29;20063;-96
2024/02/16 17:56:18;;;;;;;16.23;2.92;;;;;;;-143.29;100.00;62188.47;4940806;29;20029;-96
2024/02/16 17:58:44;;;;;;;16.90;2.03;;;;;;;-143.29;100.00;62188.47;4941235;29;20076;-96
2024/02/16 18:01:11;;;;;;;14.85;1.83;;;;;;;-143.29;100.00;62188.47;4940657;29;20036;-96
2024/02/16 18:03:36;;;;;;;18.80;2.92;;;;;;;-143.29;100.00;62188.47;4940298;29;20028;-96
2024/02/16 18:06:02;;;;;;;13.38;1.90;;;;;;;-143.29;100.00;62188.47;4940713;29;20075;-96
2024/02/16 18:08:28;;;;;;;12.90;2.05;;;;;;;-143.29;100.00;62188.47;4939975;29;20024;-96
2024/02/16 18:10:54;;;;;;;15.38;2.10;;;;;;;-143.29;100.00;62188.47;4940135;29;20044;-96
2024/02/16 18:13:21;;;;;;;19.08;2.90;;;;;;;-143.29;100.00;62188.47;4940109;29;20028;-96
2024/02/16 18:15:50;;;;;;;20.30;2.53;;;;;;;-143.29;100.00;62188.47;4939451;29;20032;-96
2024/02/16 18:18:17;;;;;;;15.65;1.88;;;;;;;-143.29;100.00;62188.47;4939816;29;20084;-96
2024/02/16 18:20:43;;;;;;;12.00;2.97;;;;;;;-143.29;100.00;62188.47;4939487;29;20012;-96
2024/02/16 18:23:09;;;;;;;20.50;5.60;;;;;;;-143.29;100.00;62188.47;4940327;29;20024;-96
2024/02/16 18:25:34;;;;;;;17.30;4.30;;;;;;;-143.29;100.00;62188.47;4939328;29;20012;-96
2024/02/16 18:28:00;;;;;;;17.23;3.85;;;;;;;-143.29;100.00;62188.47;4939861;29;20053;-96
2024/02/16 18:30:25;;;;;;;15.80;2.45;;;;;;;-143.29;100.00;62188.47;4939102;29;20048;-96
2024/02/16 18:32:51;;;;;;;21.00;3.53;;;;;;;-143.29;100.00;62188.47;4938682;29;20028;-96
2024/02/16 18:35:17;;;;;;;18.90;4.50;;;;;;;-143.29;100.00;62188.47;4939035;29;20105;-96
2024/02/16 18:37:43;;;;;;;26.73;4.82;;;;;;;-143.29;100.00;62188.47;4938351;29;20015;-96
2024/02/16 18:40:09;;;;;;;11.65;3.45;;;;;;;-143.29;100.00;62188.47;4938305;29;20055;-96
2024/02/16 18:42:36;;;;;;;22.65;3.13;;;;;;;-143.29;100.00;62188.47;4938085;29;20038;-96
2024/02/16 18:45:11;;;;;;;19.88;4.40;;;;;;;-143.29;100.00;62188.47;4938174;29;20034;-96
2024/02/16 18:47:37;;;;;;;22.73;3.17;;;;;;;-143.29;100.00;62188.47;4937900;29;20068;-96
2024/02/16 18:50:04;;;;;;;20.60;3.28;;;;;;;-143.29;100.00;62188.47;4938351;29;20039;-96
2024/02/16 18:52:31;;;;;;;20.17;4.10;;;;;;;-143.29;100.00;62188.47;4937748;29;20040;-96
2024/02/16 18:55:01;;;;;;;25.73;3.03;;;;;;;-143.29;100.00;62188.47;4937859;29;20051;-96
2024/02/16 18:57:27;;;;;;;13.50;2.28;;;;;;;-143.29;100.00;62188.47;4937821;29;20028;-96
2024/02/16 18:59:54;;;;;;;18.77;2.92;;;;;;;-143.29;100.00;62188.47;4937806;29;20015;-96
2024/02/16 19:02:19;;;;;;;14.07;3.28;;;;;;;-143.29;100.00;62188.47;4938220;29;20008;-96
2024/02/16 19:04:46;;;;;;;31.90;4.00;;;;;;;-143.29;100.00;62188.47;4937449;29;20043;-96
2024/02/16 19:07:13;;;;;;;29.25;5.38;;;;;;;-143.29;100.00;62188.47;4937038;29;20066;-96
2024/02/16 19:09:39;;;;;;;19.60;3.28;;;;;;;-143.29;100.00;62188.47;4936894;29;20028;-96
2024/02/16 19:12:07;;;;;;;14.70;3.25;;;;;;;-143.29;100.00;62188.47;4936605;29;20038;-96
2024/02/16 19:14:39;;;;;;;30.25;4.30;;;;;;;-143.29;100.00;62188.47;4940506;29;20036;-96
2024/02/16 19:17:06;;;;;;;26.17;3.33;;;;;;;-143.29;100.00;62188.47;4937662;29;20028;-96
2024/02/16 19:19:33;;;;;;;25.40;3.22;;;;;;;-143.29;100.00;62188.47;4936899;29;20032;-96
2024/02/16 19:21:59;;;;;;;24.55;3.40;;;;;;;-143.29;100.00;62188.47;4937149;29;20028;-96
2024/02/16 19:24:28;;;;;;;17.50;3.92;;;;;;;-143.29;100.00;62188.47;4934111;29;20059;-96
2024/02/16 19:26:58;;;;;;;21.45;2.35;;;;;;;-143.29;100.00;62188.47;4951009;29;20032;-96
2024/02/16 19:29:24;;;;;;;23.73;3.38;;;;;;;-143.29;100.00;62188.47;4921111;29;20044;-96
2024/02/16 19:31:50;;;;;;;27.10;4.15;;;;;;;-143.29;100.00;62188.47;4935697;29;20028;-96
2024/02/16 19:34:17;;;;;;;25.75;3.22;;;;;;;-143.29;100.00;62188.47;4935661;29;20031;-96
2024/02/16 19:36:43;;;;;;;23.55;3.15;;;;;;;-143.29;100.00;62188.47;4934615;29;20047;-96
2024/02/16 19:39:15;;;;;;;25.05;2.95;;;;;;;-143.29;100.00;62188.47;4934584;29;20024;-96
2024/02/16 19:41:48;;;;;;;14.45;2.60;;;;;;;-143.29;100.00;62188.47;4933851;29;20035;-96
2024/02/16 19:44:19;;;;;;;21.50;2.45;;;;;;;-143.29;100.00;62188.47;4933136;29;20037;-96
2024/02/16 19:46:44;;;;;;;18.45;3.78;;;;;;;-143.29;100.00;62188.47;4917916;29;20550;-96
2024/02/16 19:49:10;;;;;;;30.08;3.30;;;;;;;-143.29;100.00;62188.47;4933388;29;20088;-96
2024/02/16 19:51:36;;;;;;;19.60;3.83;;;;;;;-143.29;100.00;62188.47;4933055;29;20088;-96
2024/02/16 19:54:03;;;;;;;25.38;6.68;;;;;;;-143.29;100.00;62188.47;4934923;29;20031;-96
2024/02/16 19:56:29;;;;;;;22.85;4.68;;;;;;;-143.29;100.00;62188.47;4934239;29;20016;-96
2024/02/16 19:58:56;;;;;;;15.77;2.92;;;;;;;-143.29;100.00;62188.47;4935160;29;20104;-96
2024/02/16 20:01:22;;;;;;;18.83;3.53;;;;;;;-143.29;100.00;62188.47;4934480;29;20096;-96
2024/02/16 20:03:48;;;;;;;17.17;2.95;;;;;;;-143.29;100.00;62188.47;4934738;29;20028;-96
2024/02/16 20:06:16;;;;;;;14.75;2.35;;;;;;;-143.29;100.00;62188.47;4935905;29;20060;-96
2024/02/16 20:08:41;;;;;;;15.90;4.18;;;;;;;-143.29;100.00;62188.47;4934437;29;20024;-96
2024/02/16 20:11:07;;;;;;;28.00;3.55;;;;;;;-143.29;100.00;62188.47;4934106;29;20035;-96
2024/02/16 20:13:34;;;;;;;10.68;2.78;;;;;;;-143.29;100.00;62188.47;4935583;29;20032;-96
2024/02/16 20:16:04;;;;;;;14.48;3.47;;;;;;;-143.29;100.00;62188.47;4934535;29;20506;-96
2024/02/16 20:18:31;;;;;;;19.80;4.47;;;;;;;-143.29;100.00;62188.47;4919631;29;20041;-96
2024/02/16 20:20:58;;;;;;;13.63;3.58;;;;;;;-143.29;100.00;62188.47;4934060;29;20036;-96
2024/02/16 20:23:24;;;;;;;14.65;3.38;;;;;;;-143.29;100.00;62188.47;4934900;29;20028;-96
2024/02/16 20:25:50;;;;;;;17.33;3.60;;;;;;;-143.29;100.00;62188.47;4934724;29;20042;-96
2024/02/16 20:28:16;;;;;;;18.15;2.92;;;;;;;-143.29;100.00;62188.47;4934451;29;20057;-96
2024/02/16 20:30:43;;;;;;;16.23;2.80;;;;;;;-143.29;100.00;62188.47;4933647;29;20034;-96
2024/02/16 20:33:09;;;;;;;12.20;1.95;;;;;;;-143.29;100.00;62188.47;4933824;29;20054;-96
2024/02/16 20:35:37;;;;;;;14.45;2.00;;;;;;;-143.29;100.00;62188.47;4934344;29;20049;-96
2024/02/16 20:38:03;;;;;;;9.40;1.95;;;;;;;-143.29;100.00;62188.47;4934246;29;20024;-96
2024/02/16 20:40:29;;;;;;;23.75;3.03;;;;;;;-143.29;100.00;62188.47;4933836;29;20096;-96
2024/02/16 20:42:58;;;;;;;17.45;3.22;;;;;;;-143.29;100.00;62188.47;4932802;29;20063;-96
2024/02/16 20:45:24;;;;;;;11.80;2.22;;;;;;;-143.29;100.00;62188.47;4932494;29;20024;-96
2024/02/16 20:47:52;;;;;;;14.23;3.17;;;;;;;-143.29;100.00;62188.47;4933023;29;20032;-96
2024/02/16 20:50:18;;;;;;;13.80;2.78;;;;;;;-143.29;100.00;62188.47;4932787;29;20048;-96
2024/02/16 20:52:44;;;;;;;17.83;3.47;;;;;;;-143.29;100.00;62188.47;4932641;29;20035;-96
2024/02/16 20:55:10;;;;;;;18.60;3.75;;;;;;;-143.29;100.00;62188.47;4932091;29;20036;-96
2024/02/16 20:57:36;;;;;;;15.57;3.13;;;;;;;-143.29;100.00;62188.47;4932272;29;20028;-96
2024/02/16 21:00:07;;;;;;;13.75;2.78;;;;;;;-143.29;100.00;62188.47;4935478;29;20047;-96
2024/02/16 21:02:35;;;;;;;20.13;3.38;;;;;;;-143.29;100.00;62188.47;4936517;29;20111;-96
2024/02/16 21:05:01;;;;;;;18.30;3.38;;;;;;;-143.29;100.00;62188.47;4936070;29;20096;-96
2024/02/16 21:07:26;;;;;;;24.48;4.32;;;;;;;-143.29;100.00;62188.47;4936319;29;20028;-96
2024/02/16 21:09:53;;;;;;;14.82;2.50;;;;;;;-143.29;100.00;62188.47;4935239;29;20012;-96
2024/02/16 21:12:19;;;;;;;11.05;2.25;;;;;;;-143.29;100.00;62188.47;4935140;29;20051;-96
2024/02/16 21:14:45;;;;;;;11.68;2.10;;;;;;;-143.29;100.00;62188.47;4935140;29;20039;-96
2024/02/16 21:17:11;;;;;;;14.63;1.90;;;;;;;-143.29;100.00;62188.47;4934302;29;20487;-96
2024/02/16 21:19:36;;;;;;;20.58;2.75;;;;;;;-143.29;100.00;62188.47;4934916;29;20095;-96
2024/02/16 21:22:04;;;;;;;12.18;2.30;;;;;;;-143.29;100.00;62188.47;4936434;29;20056;-96
2024/02/16 21:24:30;;;;;;;9.82;2.78;;;;;;;-143.29;100.00;62188.47;4934971;29;20114;-96
2024/02/16 21:26:57;;;;;;;22.10;3.03;;;;;;;-143.29;100.00;62188.47;4935021;29;20043;-96